Red Cliff, Wisconsin
Current Conditions -  °F | °C
As of 4:39 AM on Friday 24 Oct 2014 (Local Time) from KASX Reporting Station
Haze Haze  
Wind Chill: 43°   Ceiling: Unl
Heat Index: 43°   Visibility: 3mi
Dew Point: 43°   Wind: 3mph
Humidity: 100%   Direction: 200°SSW
Pressure: 29.94"   Gusts: NA
Location:  46.8614°N, 90.9101°W
Report Text: KASX 240939Z AUTO 20003KT 3SM BR CLR 06/06 A2994 RMK AO2 T00610061
Loading
Personal Weather Stations






























Interactive Weather Map
Tropical Storm Tracking
New forecast layout! Learn more

10-Day Weather Forecast

Advertisements
Track Severe Weather on mobile